createdAt,value
2023-04-15T00:00:52.556Z,32.63
2023-04-15T00:01:52.604Z,32.59
2023-04-15T00:02:52.696Z,32.59
2023-04-15T00:03:52.781Z,32.56
2023-04-15T00:04:52.640Z,32.54
2023-04-15T00:05:52.531Z,32.56
2023-04-15T00:06:52.522Z,32.53
2023-04-15T00:07:52.509Z,32.52
2023-04-15T00:08:52.500Z,32.51
2023-04-15T00:09:52.498Z,32.53
2023-04-15T00:10:52.514Z,32.50
2023-04-15T00:11:52.531Z,32.52
2023-04-15T00:12:52.493Z,32.50
2023-04-15T00:13:52.471Z,32.51
2023-04-15T00:14:52.456Z,32.54
2023-04-15T00:15:52.456Z,32.52
2023-04-15T00:16:52.530Z,32.53
2023-04-15T00:17:52.480Z,32.51
2023-04-15T00:18:52.442Z,32.51
2023-04-15T00:19:52.433Z,32.50
2023-04-15T00:20:52.446Z,32.51
2023-04-15T00:21:52.409Z,32.53
2023-04-15T00:22:52.409Z,32.53
2023-04-15T00:23:52.447Z,32.53
2023-04-15T00:24:52.393Z,32.53
2023-04-15T00:25:52.400Z,32.53
2023-04-15T00:26:52.422Z,32.52
2023-04-15T00:27:52.423Z,32.50
2023-04-15T00:28:52.438Z,32.51
2023-04-15T00:29:52.482Z,32.50
2023-04-15T00:30:52.506Z,32.49
2023-04-15T00:31:52.478Z,32.48
2023-04-15T00:32:52.526Z,32.50
2023-04-15T00:33:52.499Z,32.53
2023-04-15T00:34:52.552Z,32.51
2023-04-15T00:35:52.523Z,32.51
2023-04-15T00:36:52.539Z,32.51
2023-04-15T00:37:52.587Z,32.51
2023-04-15T00:38:52.626Z,32.53
2023-04-15T00:39:52.590Z,32.53
2023-04-15T00:40:52.599Z,32.53
2023-04-15T00:41:52.643Z,32.54
2023-04-15T00:42:52.620Z,32.55
2023-04-15T00:43:52.621Z,32.54
2023-04-15T00:44:52.618Z,32.52
2023-04-15T00:45:52.656Z,32.54
2023-04-15T00:46:52.712Z,32.52
2023-04-15T00:47:52.718Z,32.51
2023-04-15T00:48:52.689Z,32.53
2023-04-15T00:49:52.647Z,32.53
2023-04-15T00:50:52.674Z,32.53
2023-04-15T00:51:52.668Z,32.54
2023-04-15T00:52:52.678Z,32.53
2023-04-15T00:53:52.694Z,32.53
2023-04-15T00:54:52.736Z,32.54
2023-04-15T00:55:52.740Z,32.53
2023-04-15T00:56:52.714Z,32.54
2023-04-15T00:57:52.736Z,32.54
2023-04-15T00:58:52.746Z,32.53
2023-04-15T00:59:52.739Z,32.55
2023-04-15T01:00:52.764Z,32.56
2023-04-15T01:01:52.815Z,32.55
2023-04-15T01:02:52.855Z,32.54
2023-04-15T01:03:52.832Z,32.52
2023-04-15T01:04:52.786Z,32.52
2023-04-15T01:05:52.746Z,32.53
2023-04-15T01:06:52.757Z,32.53
2023-04-15T01:07:52.764Z,32.55
2023-04-15T01:08:52.781Z,32.53
2023-04-15T01:09:52.816Z,32.56
2023-04-15T01:10:52.787Z,32.55
2023-04-15T01:11:52.792Z,32.53
2023-04-15T01:12:52.797Z,32.55
2023-04-15T01:13:52.807Z,32.54
2023-04-15T01:14:52.809Z,32.54
2023-04-15T01:15:52.852Z,32.54
2023-04-15T01:16:52.832Z,32.55
2023-04-15T01:17:52.897Z,32.54
2023-04-15T01:18:52.860Z,32.52
2023-04-15T01:19:52.836Z,32.54
2023-04-15T01:20:52.843Z,32.54
2023-04-15T01:21:52.855Z,32.54
2023-04-15T01:22:52.864Z,32.55
2023-04-15T01:23:52.912Z,32.55
2023-04-15T01:24:52.885Z,32.54
2023-04-15T01:25:52.897Z,32.55
2023-04-15T01:26:52.958Z,32.54
2023-04-15T01:27:52.911Z,32.54
2023-04-15T01:28:52.931Z,32.56
2023-04-15T01:29:52.946Z,32.55
2023-04-15T01:30:52.952Z,32.54
2023-04-15T01:31:53.027Z,32.55
2023-04-15T01:32:52.957Z,32.53
2023-04-15T01:33:52.970Z,32.54
2023-04-15T01:34:52.963Z,32.52
2023-04-15T01:35:52.951Z,32.53
2023-04-15T01:36:52.954Z,32.53
2023-04-15T01:37:52.960Z,32.53
2023-04-15T01:38:53.002Z,32.53
2023-04-15T01:39:52.979Z,32.53
2023-04-15T01:40:52.975Z,32.55
2023-04-15T01:41:52.978Z,32.54
2023-04-15T01:42:52.975Z,32.55
2023-04-15T01:43:53.045Z,32.54
2023-04-15T01:44:52.991Z,32.56
2023-04-15T01:45:52.994Z,32.56
2023-04-15T01:46:53.072Z,32.55
2023-04-15T01:47:53.127Z,32.55
2023-04-15T01:48:53.036Z,32.54
2023-04-15T01:49:53.036Z,32.55
2023-04-15T01:50:53.043Z,32.54
2023-04-15T01:51:53.038Z,32.54
2023-04-15T01:52:53.052Z,32.52
2023-04-15T01:53:53.065Z,32.55
2023-04-15T01:54:53.117Z,32.52
2023-04-15T01:55:53.110Z,32.56
2023-04-15T01:56:53.102Z,32.55
2023-04-15T01:57:53.126Z,32.52
2023-04-15T01:58:53.142Z,32.53
2023-04-15T01:59:53.160Z,32.54
2023-04-15T02:00:53.260Z,32.54
2023-04-15T02:01:53.225Z,32.55
2023-04-15T02:02:53.338Z,32.55
2023-04-15T02:03:53.294Z,32.55
2023-04-15T02:04:53.261Z,32.52
2023-04-15T02:05:53.296Z,32.54
2023-04-15T02:06:53.343Z,32.56
2023-04-15T02:07:53.328Z,32.53
2023-04-15T02:08:53.351Z,32.51
2023-04-15T02:09:53.365Z,32.51
2023-04-15T02:10:53.388Z,32.51
2023-04-15T02:11:53.417Z,32.51
2023-04-15T02:12:53.442Z,32.53
2023-04-15T02:13:53.476Z,32.52
2023-04-15T02:14:53.497Z,32.52
2023-04-15T02:15:53.519Z,32.51
2023-04-15T02:16:53.723Z,32.52
2023-04-15T02:17:54.564Z,32.53
2023-04-15T02:18:53.603Z,32.54
2023-04-15T02:19:53.600Z,32.51
2023-04-15T02:20:53.628Z,32.50
2023-04-15T02:21:53.687Z,32.53
2023-04-15T02:22:53.687Z,32.49
2023-04-15T02:23:54.178Z,32.52
2023-04-15T02:24:53.731Z,32.52
2023-04-15T02:25:54.420Z,32.49
2023-04-15T02:26:53.749Z,32.50
2023-04-15T02:27:53.770Z,32.51
2023-04-15T02:28:53.793Z,32.49
2023-04-15T02:29:53.854Z,32.53
2023-04-15T02:30:53.837Z,32.49
2023-04-15T02:31:53.913Z,32.51
2023-04-15T02:32:53.902Z,32.49
2023-04-15T02:33:53.872Z,32.51
2023-04-15T02:34:53.936Z,32.51
2023-04-15T02:35:53.916Z,32.50
2023-04-15T02:36:53.936Z,32.49
2023-04-15T02:37:53.938Z,32.48
2023-04-15T02:38:53.962Z,32.49
2023-04-15T02:39:54.008Z,32.49
2023-04-15T02:40:54.000Z,32.48
2023-04-15T02:41:54.014Z,32.48
2023-04-15T02:42:54.035Z,32.49
2023-04-15T02:43:54.050Z,32.47
2023-04-15T02:44:54.103Z,32.50
2023-04-15T02:45:54.119Z,32.49
2023-04-15T02:46:54.098Z,32.49
2023-04-15T02:47:54.143Z,32.48
2023-04-15T02:48:54.129Z,32.47
2023-04-15T02:49:54.197Z,32.48
2023-04-15T02:50:54.185Z,32.48
2023-04-15T02:51:54.179Z,32.50
2023-04-15T02:52:54.235Z,32.47
2023-04-15T02:53:54.250Z,32.48
2023-04-15T02:54:54.284Z,32.49
2023-04-15T02:55:54.270Z,32.45
2023-04-15T02:56:54.300Z,32.48
2023-04-15T02:57:54.369Z,32.44
2023-04-15T02:58:54.335Z,32.48
2023-04-15T02:59:54.350Z,32.47
2023-04-15T03:00:54.364Z,32.48
2023-04-15T03:01:54.516Z,32.46
2023-04-15T03:02:54.475Z,32.46
2023-04-15T03:03:54.575Z,32.46
2023-04-15T03:04:54.495Z,32.48
2023-04-15T03:05:54.474Z,32.45
2023-04-15T03:06:54.529Z,32.45
2023-04-15T03:07:54.521Z,32.44
2023-04-15T03:08:54.531Z,32.47
2023-04-15T03:09:54.568Z,32.46
2023-04-15T03:10:54.549Z,32.45
2023-04-15T03:11:54.576Z,32.45
2023-04-15T03:12:54.603Z,32.44
2023-04-15T03:13:54.626Z,32.44
2023-04-15T03:14:54.664Z,32.45
2023-04-15T03:15:54.694Z,32.43
2023-04-15T03:16:54.699Z,32.45
2023-04-15T03:17:54.774Z,32.46
2023-04-15T03:18:54.714Z,32.47
2023-04-15T03:19:54.764Z,32.47
2023-04-15T03:20:54.748Z,32.46
2023-04-15T03:21:54.771Z,32.43
2023-04-15T03:22:54.850Z,32.43
2023-04-15T03:23:54.845Z,32.45
2023-04-15T03:24:54.872Z,32.43
2023-04-15T03:25:54.847Z,32.44
2023-04-15T03:26:54.869Z,32.44
2023-04-15T03:27:54.889Z,32.45
2023-04-15T03:28:54.919Z,32.45
2023-04-15T03:29:54.968Z,32.45
2023-04-15T03:30:54.991Z,32.46
2023-04-15T03:31:54.989Z,32.42
2023-04-15T03:32:55.074Z,32.44
2023-04-15T03:33:55.009Z,32.45
2023-04-15T03:34:55.096Z,32.45
2023-04-15T03:35:55.064Z,32.44
2023-04-15T03:36:55.094Z,32.44
2023-04-15T03:37:55.117Z,32.44
2023-04-15T03:38:55.162Z,32.42
2023-04-15T03:39:55.155Z,32.42
2023-04-15T03:40:55.174Z,32.44
2023-04-15T03:41:55.199Z,32.45
2023-04-15T03:42:55.215Z,32.45
2023-04-15T03:43:55.260Z,32.44
2023-04-15T03:44:55.268Z,32.41
2023-04-15T03:45:55.293Z,32.42
2023-04-15T03:46:55.324Z,32.43
2023-04-15T03:47:55.382Z,32.43
2023-04-15T03:48:55.402Z,32.43
2023-04-15T03:49:55.358Z,32.42
2023-04-15T03:50:55.381Z,32.44
2023-04-15T03:51:55.394Z,32.41
2023-04-15T03:52:55.399Z,32.42
2023-04-15T03:53:55.511Z,32.43
2023-04-15T03:54:55.468Z,32.41
2023-04-15T03:55:55.431Z,32.41
2023-04-15T03:56:55.461Z,32.42
2023-04-15T03:57:55.481Z,32.42
2023-04-15T03:58:55.500Z,32.43
2023-04-15T03:59:55.507Z,32.41
2023-04-15T04:00:55.516Z,32.42
2023-04-15T04:01:55.636Z,32.40
2023-04-15T04:02:55.713Z,32.42
2023-04-15T04:03:55.648Z,32.42
2023-04-15T04:04:55.578Z,32.41
2023-04-15T04:05:55.562Z,32.41
2023-04-15T04:06:55.560Z,32.41
2023-04-15T04:07:55.560Z,32.43
2023-04-15T04:08:55.558Z,32.43
2023-04-15T04:09:55.574Z,32.39
2023-04-15T04:10:55.613Z,32.42
2023-04-15T04:11:55.585Z,32.41
2023-04-15T04:12:55.602Z,32.41
2023-04-15T04:13:55.604Z,32.44
2023-04-15T04:14:55.609Z,32.41
2023-04-15T04:15:55.663Z,32.43
2023-04-15T04:16:55.698Z,32.42
2023-04-15T04:17:55.685Z,32.41
2023-04-15T04:18:55.693Z,32.43
2023-04-15T04:19:55.721Z,32.43
2023-04-15T04:20:55.732Z,32.42
2023-04-15T04:21:55.758Z,32.41
2023-04-15T04:22:55.783Z,32.44
2023-04-15T04:23:55.793Z,32.43
2023-04-15T04:24:55.841Z,32.41
2023-04-15T04:25:55.822Z,32.44
2023-04-15T04:26:55.869Z,32.40
2023-04-15T04:27:55.849Z,32.43
2023-04-15T04:28:55.846Z,32.40
2023-04-15T04:29:55.863Z,32.42
2023-04-15T04:30:55.879Z,32.43
2023-04-15T04:31:55.924Z,32.41
2023-04-15T04:32:55.922Z,32.39
2023-04-15T04:33:55.894Z,32.42
2023-04-15T04:34:55.890Z,32.43
2023-04-15T04:35:55.896Z,32.44
2023-04-15T04:36:55.909Z,32.44
2023-04-15T04:37:55.903Z,32.41
2023-04-15T04:38:55.921Z,32.42
2023-04-15T04:39:55.953Z,32.41
2023-04-15T04:40:55.972Z,32.43
2023-04-15T04:41:55.977Z,32.42
2023-04-15T04:42:56.005Z,32.41
2023-04-15T04:43:56.010Z,32.43
2023-04-15T04:44:56.048Z,32.41
2023-04-15T04:45:56.116Z,32.42
2023-04-15T04:46:56.135Z,32.45
2023-04-15T04:47:56.132Z,32.40
2023-04-15T04:48:56.115Z,32.41
2023-04-15T04:49:56.130Z,32.42
2023-04-15T04:50:56.185Z,32.40
2023-04-15T04:51:56.158Z,32.43
2023-04-15T04:52:56.160Z,32.42
2023-04-15T04:53:56.186Z,32.40
2023-04-15T04:54:56.201Z,32.41
2023-04-15T04:55:56.235Z,32.42
2023-04-15T04:56:56.191Z,32.40
2023-04-15T04:57:56.208Z,32.41
2023-04-15T04:58:56.239Z,32.40
2023-04-15T04:59:56.220Z,32.39
2023-04-15T05:00:56.231Z,32.38
2023-04-15T05:01:56.278Z,32.39
2023-04-15T05:02:56.313Z,32.37
2023-04-15T05:03:56.367Z,32.41
2023-04-15T05:04:56.255Z,32.39
2023-04-15T05:05:56.588Z,32.39
2023-04-15T05:06:56.354Z,32.36
2023-04-15T05:07:56.304Z,32.40
2023-04-15T05:08:56.327Z,32.41
2023-04-15T05:09:56.340Z,32.38
2023-04-15T05:10:56.385Z,32.38
2023-04-15T05:11:56.370Z,32.37
2023-04-15T05:12:56.419Z,32.38
2023-04-15T05:13:56.410Z,32.36
2023-04-15T05:14:56.450Z,32.38
2023-04-15T05:15:56.510Z,32.37
2023-04-15T05:16:56.474Z,32.35
2023-04-15T05:17:56.500Z,32.36
2023-04-15T05:18:56.478Z,32.37
2023-04-15T05:19:56.486Z,32.37
2023-04-15T05:20:56.546Z,32.36
2023-04-15T05:21:56.523Z,32.35
2023-04-15T05:22:56.544Z,32.36
2023-04-15T05:23:56.571Z,32.36
2023-04-15T05:24:56.632Z,32.35
2023-04-15T05:25:56.588Z,32.35
2023-04-15T05:26:56.604Z,32.36
2023-04-15T05:27:56.622Z,32.34
2023-04-15T05:28:56.672Z,32.34
2023-04-15T05:29:56.720Z,32.34
2023-04-15T05:30:56.736Z,32.34
2023-04-15T05:31:56.716Z,32.33
2023-04-15T05:32:56.728Z,32.35
2023-04-15T05:33:56.720Z,32.33
2023-04-15T05:34:56.753Z,32.36
2023-04-15T05:35:56.764Z,32.36
2023-04-15T05:36:56.780Z,32.36
2023-04-15T05:37:56.794Z,32.34
2023-04-15T05:38:56.813Z,32.32
2023-04-15T05:39:56.848Z,32.31
2023-04-15T05:40:56.836Z,32.32
2023-04-15T05:41:56.860Z,32.33
2023-04-15T05:42:56.868Z,32.32
2023-04-15T05:43:56.907Z,32.31
2023-04-15T05:44:56.934Z,32.32
2023-04-15T05:45:56.950Z,32.31
2023-04-15T05:46:56.957Z,32.32
2023-04-15T05:47:57.007Z,32.32
2023-04-15T05:48:56.973Z,32.32
2023-04-15T05:49:56.994Z,32.31
2023-04-15T05:50:57.014Z,32.32
2023-04-15T05:51:57.026Z,32.32
2023-04-15T05:52:57.062Z,32.31
2023-04-15T05:53:57.047Z,32.15
2023-04-15T05:54:57.086Z,31.47
2023-04-15T05:55:57.075Z,31.97
2023-04-15T05:56:57.096Z,32.74
2023-04-15T05:57:57.133Z,33.57
2023-04-15T05:58:57.163Z,34.30
2023-04-15T05:59:57.605Z,34.97
2023-04-15T06:00:57.287Z,35.22
2023-04-15T06:01:57.391Z,35.49
2023-04-15T06:02:57.438Z,35.37
2023-04-15T06:03:57.494Z,35.30
2023-04-15T06:04:57.503Z,35.01
2023-04-15T06:05:57.429Z,34.80
2023-04-15T06:06:57.434Z,34.70
2023-04-15T06:07:57.434Z,34.59
2023-04-15T06:08:57.561Z,34.48
2023-04-15T06:09:57.520Z,34.27
2023-04-15T06:10:57.554Z,34.13
2023-04-15T06:11:57.580Z,33.96
2023-04-15T06:12:57.582Z,33.90
2023-04-15T06:13:57.594Z,33.78
2023-04-15T06:14:59.538Z,33.73
2023-04-15T06:15:57.640Z,33.71
2023-04-15T06:16:57.596Z,33.70
2023-04-15T06:17:57.616Z,33.71
2023-04-15T06:18:57.608Z,33.56
2023-04-15T06:19:57.574Z,33.76
2023-04-15T06:20:57.604Z,33.98
2023-04-15T06:21:57.563Z,34.08
2023-04-15T06:22:57.554Z,34.14
2023-04-15T06:23:57.542Z,34.28
2023-04-15T06:24:57.525Z,34.28
2023-04-15T06:25:57.525Z,34.35
2023-04-15T06:26:57.512Z,34.46
2023-04-15T06:27:57.505Z,34.43
2023-04-15T06:28:57.502Z,34.49
2023-04-15T06:29:57.498Z,34.60
2023-04-15T06:30:57.488Z,34.65
2023-04-15T06:31:57.606Z,34.71
2023-04-15T06:32:57.577Z,34.76
2023-04-15T06:33:57.469Z,34.84
2023-04-15T06:34:57.478Z,34.91
2023-04-15T06:35:57.453Z,34.98
2023-04-15T06:36:57.462Z,35.05
2023-04-15T06:37:57.446Z,35.15
2023-04-15T06:38:57.428Z,35.12
2023-04-15T06:39:57.422Z,35.15
2023-04-15T06:40:57.411Z,35.28
2023-04-15T06:41:57.422Z,35.33
2023-04-15T06:42:57.405Z,35.36
2023-04-15T06:43:57.408Z,35.39
2023-04-15T06:44:57.430Z,35.50
2023-04-15T06:45:57.434Z,35.55
2023-04-15T06:46:57.374Z,35.58
2023-04-15T06:47:57.448Z,35.62
2023-04-15T06:48:57.386Z,35.72
2023-04-15T06:49:57.405Z,35.80
2023-04-15T06:50:57.393Z,35.82
2023-04-15T06:51:57.348Z,35.85
2023-04-15T06:52:57.365Z,35.96
2023-04-15T06:53:57.336Z,36.00
2023-04-15T06:54:57.345Z,36.10
2023-04-15T06:55:57.303Z,36.10
2023-04-15T06:56:57.312Z,36.13
2023-04-15T06:57:57.313Z,36.24
2023-04-15T06:58:57.387Z,36.25
2023-04-15T06:59:57.436Z,36.18
2023-04-15T07:00:57.507Z,36.41
2023-04-15T07:01:57.599Z,36.38
2023-04-15T07:02:57.645Z,36.46
2023-04-15T07:03:57.687Z,36.52
2023-04-15T07:04:57.731Z,36.61
2023-04-15T07:05:57.791Z,35.78
2023-04-15T07:06:57.883Z,33.87
2023-04-15T07:07:57.859Z,33.87
2023-04-15T07:08:57.863Z,33.48
2023-04-15T07:09:57.862Z,33.25
2023-04-15T07:10:57.883Z,33.80
2023-04-15T07:11:57.913Z,32.86
2023-04-15T07:12:57.944Z,32.72
2023-04-15T07:13:57.987Z,32.65
2023-04-15T07:14:58.032Z,32.42
2023-04-15T07:15:58.072Z,32.27
2023-04-15T07:16:58.161Z,32.04
2023-04-15T07:17:58.215Z,31.14
2023-04-15T07:18:58.194Z,31.13
2023-04-15T07:19:58.219Z,30.09
2023-04-15T07:20:58.249Z,30.41
2023-04-15T07:21:58.295Z,30.97
2023-04-15T07:22:58.324Z,31.08
2023-04-15T07:23:58.409Z,31.36
2023-04-15T07:24:58.381Z,31.45
2023-04-15T07:25:58.384Z,31.08
2023-04-15T07:26:59.533Z,31.23
2023-04-15T07:27:58.392Z,31.24
2023-04-15T07:28:58.377Z,31.33
2023-04-15T07:29:58.371Z,31.25
2023-04-15T07:30:58.376Z,31.19
2023-04-15T07:31:58.363Z,30.98
2023-04-15T07:32:58.394Z,30.73
2023-04-15T07:33:58.345Z,30.46
2023-04-15T07:34:58.340Z,30.16
2023-04-15T07:35:58.333Z,30.09
2023-04-15T07:36:58.320Z,30.29
2023-04-15T07:37:58.314Z,30.26
2023-04-15T07:38:58.329Z,30.23
2023-04-15T07:39:58.306Z,30.15
2023-04-15T07:40:58.314Z,30.09
2023-04-15T07:41:58.298Z,30.07
2023-04-15T07:42:58.295Z,30.17
2023-04-15T07:43:58.280Z,30.37
2023-04-15T07:44:58.271Z,30.66
2023-04-15T07:45:58.298Z,30.53
2023-04-15T07:46:58.261Z,30.50
2023-04-15T07:47:58.310Z,30.89
2023-04-15T07:48:58.241Z,30.63
2023-04-15T07:49:58.240Z,30.80
2023-04-15T07:50:58.240Z,30.66
2023-04-15T07:51:58.220Z,31.04
2023-04-15T07:52:58.217Z,31.24
2023-04-15T07:53:58.204Z,31.42
2023-04-15T07:54:58.223Z,31.50
2023-04-15T07:55:58.198Z,31.59
2023-04-15T07:56:58.400Z,31.64
2023-04-15T07:57:58.180Z,31.75
2023-04-15T07:58:58.214Z,31.80
2023-04-15T07:59:58.159Z,31.85
2023-04-15T08:00:58.150Z,31.94
2023-04-15T08:01:58.178Z,31.97
2023-04-15T08:02:58.256Z,32.09
2023-04-15T08:03:58.274Z,32.04
2023-04-15T08:04:58.180Z,32.14
2023-04-15T08:05:58.126Z,32.31
2023-04-15T08:06:58.113Z,32.41
2023-04-15T08:07:58.113Z,32.38
2023-04-15T08:08:58.257Z,32.50
2023-04-15T08:09:58.090Z,32.57
2023-04-15T08:10:58.108Z,32.76
2023-04-15T08:11:58.090Z,32.83
2023-04-15T08:12:58.080Z,32.95
2023-04-15T08:13:58.062Z,33.03
2023-04-15T08:14:58.049Z,33.14
2023-04-15T08:15:58.053Z,33.30
2023-04-15T08:16:58.041Z,33.20
2023-04-15T08:17:58.057Z,33.19
2023-04-15T08:18:58.110Z,33.38
2023-04-15T08:19:58.060Z,33.47
2023-04-15T08:20:58.124Z,33.56
2023-04-15T08:21:58.182Z,33.54
2023-04-15T08:22:58.249Z,33.00
2023-04-15T08:23:58.310Z,33.35
2023-04-15T08:24:58.325Z,32.57
2023-04-15T08:25:58.320Z,31.41
2023-04-15T08:26:58.360Z,29.98
2023-04-15T08:27:58.401Z,30.59
2023-04-15T08:28:58.445Z,31.05
2023-04-15T08:29:58.511Z,31.92
2023-04-15T08:30:58.571Z,31.75
2023-04-15T08:31:58.667Z,32.11
2023-04-15T08:32:58.680Z,32.23
2023-04-15T08:33:58.725Z,32.70
2023-04-15T08:34:58.777Z,32.88
2023-04-15T08:35:58.827Z,33.11
2023-04-15T08:36:58.856Z,33.22
2023-04-15T08:37:58.887Z,33.32
2023-04-15T08:38:58.915Z,33.37
2023-04-15T08:39:58.916Z,33.37
2023-04-15T08:40:58.935Z,33.43
2023-04-15T08:41:58.937Z,33.31
2023-04-15T08:42:59.053Z,33.32
2023-04-15T08:43:58.962Z,33.22
2023-04-15T08:44:58.935Z,32.82
2023-04-15T08:45:58.932Z,32.28
2023-04-15T08:46:58.965Z,32.15
2023-04-15T08:47:59.014Z,32.24
2023-04-15T08:48:58.983Z,31.78
2023-04-15T08:49:58.958Z,31.87
2023-04-15T08:50:58.956Z,32.16
2023-04-15T08:51:58.957Z,32.52
2023-04-15T08:52:58.953Z,32.72
2023-04-15T08:53:58.947Z,33.05
2023-04-15T08:54:58.953Z,33.17
2023-04-15T08:55:58.976Z,33.14
2023-04-15T08:56:58.946Z,33.39
2023-04-15T08:57:58.965Z,33.48
2023-04-15T08:58:59.102Z,33.57
2023-04-15T08:59:59.038Z,33.66
2023-04-15T09:00:59.111Z,33.74
2023-04-15T09:01:59.164Z,33.77
2023-04-15T09:02:59.243Z,33.85
2023-04-15T09:03:59.290Z,33.86
2023-04-15T09:04:59.290Z,33.98
2023-04-15T09:05:59.347Z,34.06
2023-04-15T09:06:59.405Z,34.10
2023-04-15T09:07:59.478Z,34.19
2023-04-15T09:09:00.422Z,34.28
2023-04-15T09:09:59.571Z,34.38
2023-04-15T09:10:59.675Z,34.46
2023-04-15T09:11:59.696Z,34.54
2023-04-15T09:12:59.773Z,34.57
2023-04-15T09:13:59.809Z,34.63
2023-04-15T09:15:00.022Z,34.70
2023-04-15T09:15:59.945Z,34.79
2023-04-15T09:17:00.055Z,34.88
2023-04-15T09:18:00.176Z,34.87
2023-04-15T09:19:00.292Z,34.98
2023-04-15T09:20:00.188Z,35.11
2023-04-15T09:21:00.248Z,35.20
2023-04-15T09:22:00.312Z,35.23
2023-04-15T09:23:00.380Z,35.23
2023-04-15T09:24:00.596Z,35.35
2023-04-15T09:25:00.504Z,35.27
2023-04-15T09:26:00.556Z,35.34
2023-04-15T09:27:00.637Z,35.41
2023-04-15T09:28:00.659Z,35.47
2023-04-15T09:29:00.727Z,35.58
2023-04-15T09:30:00.771Z,35.52
2023-04-15T09:31:00.893Z,35.60
2023-04-15T09:32:00.878Z,35.69
2023-04-15T09:33:00.987Z,35.73
2023-04-15T09:34:01.249Z,35.75
2023-04-15T09:35:01.121Z,35.81
2023-04-15T09:36:01.175Z,35.89
2023-04-15T09:37:01.230Z,36.02
2023-04-15T09:38:01.283Z,33.69
2023-04-15T09:39:01.383Z,32.20
2023-04-15T09:40:01.350Z,31.90
2023-04-15T09:41:01.362Z,31.24
2023-04-15T09:42:01.422Z,30.84
2023-04-15T09:43:01.453Z,30.67
2023-04-15T09:44:01.796Z,30.96
2023-04-15T09:45:01.469Z,30.71
2023-04-15T09:46:01.517Z,30.56
2023-04-15T09:47:01.553Z,30.81
2023-04-15T09:48:01.650Z,30.57
2023-04-15T09:49:01.611Z,30.60
2023-04-15T09:50:01.959Z,30.68
2023-04-15T09:51:01.718Z,30.38
2023-04-15T09:52:05.735Z,30.58
2023-04-15T09:53:01.753Z,30.27
2023-04-15T09:54:01.910Z,30.33
2023-04-15T09:55:01.726Z,30.64
2023-04-15T09:56:01.781Z,31.00
2023-04-15T09:57:01.725Z,31.00
2023-04-15T09:58:01.702Z,31.19
2023-04-15T09:59:01.698Z,31.44
2023-04-15T10:00:01.686Z,31.41
2023-04-15T10:01:01.765Z,31.49
2023-04-15T10:02:01.734Z,31.59
2023-04-15T10:03:01.833Z,31.77
2023-04-15T10:04:01.903Z,31.71
2023-04-15T10:05:01.670Z,31.80
2023-04-15T10:06:01.650Z,31.97
2023-04-15T10:07:01.682Z,32.04
2023-04-15T10:08:01.641Z,32.23
2023-04-15T10:09:01.690Z,32.25
2023-04-15T10:10:01.664Z,32.09
2023-04-15T10:11:01.625Z,31.69
2023-04-15T10:12:01.626Z,31.99
2023-04-15T10:13:01.632Z,32.15
2023-04-15T10:14:01.952Z,31.77
2023-04-15T10:15:01.589Z,32.08
2023-04-15T10:16:01.614Z,32.56
2023-04-15T10:17:01.584Z,32.80
2023-04-15T10:18:01.657Z,32.91
2023-04-15T10:19:01.586Z,32.99
2023-04-15T10:20:01.675Z,33.01
2023-04-15T10:21:01.556Z,33.10
2023-04-15T10:22:01.571Z,33.08
2023-04-15T10:23:01.535Z,33.10
2023-04-15T10:24:01.798Z,33.03
2023-04-15T10:25:01.516Z,33.13
2023-04-15T10:26:01.521Z,33.20
2023-04-15T10:27:01.513Z,33.36
2023-04-15T10:28:01.490Z,33.39
2023-04-15T10:29:01.514Z,33.44
2023-04-15T10:30:01.577Z,33.50
2023-04-15T10:31:01.718Z,33.55
2023-04-15T10:32:01.709Z,33.63
2023-04-15T10:33:01.965Z,33.72
2023-04-15T10:34:02.165Z,33.83
2023-04-15T10:35:01.959Z,33.90
2023-04-15T10:36:01.941Z,33.95
2023-04-15T10:37:01.985Z,34.01
2023-04-15T10:38:02.051Z,34.10
2023-04-15T10:39:02.153Z,34.13
2023-04-15T10:40:02.177Z,34.22
2023-04-15T10:41:02.199Z,34.24
2023-04-15T10:42:02.256Z,34.31
2023-04-15T10:43:02.314Z,34.34
2023-04-15T10:44:02.713Z,34.44
2023-04-15T10:45:02.400Z,34.48
2023-04-15T10:46:02.460Z,34.57
2023-04-15T10:47:02.517Z,34.64
2023-04-15T10:48:03.792Z,34.59
2023-04-15T10:49:02.607Z,34.16
2023-04-15T10:50:02.708Z,33.42
2023-04-15T10:51:02.747Z,33.17
2023-04-15T10:52:02.779Z,32.82
2023-04-15T10:53:02.849Z,32.24
2023-04-15T10:54:02.870Z,32.63
2023-04-15T10:55:02.883Z,32.51
2023-04-15T10:56:02.876Z,32.28
2023-04-15T10:57:02.929Z,32.71
2023-04-15T10:58:02.894Z,33.80
2023-04-15T10:59:02.907Z,33.99
2023-04-15T11:00:02.952Z,34.01
2023-04-15T11:01:03.224Z,33.97
2023-04-15T11:02:03.089Z,33.92
2023-04-15T11:03:03.121Z,33.85
2023-04-15T11:04:03.608Z,33.76
2023-04-15T11:05:03.112Z,33.75
2023-04-15T11:06:03.158Z,33.70
2023-04-15T11:07:03.242Z,33.66
2023-04-15T11:08:03.271Z,33.67
2023-04-15T11:09:03.333Z,33.68
2023-04-15T11:10:03.419Z,33.67
2023-04-15T11:11:03.473Z,33.69
2023-04-15T11:12:03.536Z,33.68
2023-04-15T11:13:03.600Z,33.68
2023-04-15T11:14:03.843Z,33.69
2023-04-15T11:15:03.724Z,33.70
2023-04-15T11:16:03.884Z,33.69
2023-04-15T11:17:03.843Z,33.67
2023-04-15T11:18:03.943Z,33.69
2023-04-15T11:19:03.961Z,33.65
2023-04-15T11:20:04.025Z,33.68
2023-04-15T11:21:04.078Z,33.65
2023-04-15T11:22:04.131Z,33.65
2023-04-15T11:23:08.218Z,33.66
2023-04-15T11:24:04.229Z,33.67
2023-04-15T11:25:04.166Z,33.67
2023-04-15T11:26:04.162Z,33.68
2023-04-15T11:27:04.146Z,33.69
2023-04-15T11:28:04.178Z,33.69
2023-04-15T11:29:04.379Z,33.69
2023-04-15T11:30:04.126Z,33.74
2023-04-15T11:31:04.117Z,33.73
2023-04-15T11:32:04.138Z,33.75
2023-04-15T11:33:04.156Z,33.74
2023-04-15T11:34:04.289Z,33.76
2023-04-15T11:35:04.246Z,33.77
2023-04-15T11:36:04.082Z,33.76
2023-04-15T11:37:04.086Z,33.76
2023-04-15T11:38:04.076Z,33.77
2023-04-15T11:39:04.201Z,33.77
2023-04-15T11:40:04.071Z,33.77
2023-04-15T11:41:04.058Z,33.78
2023-04-15T11:42:04.044Z,33.79
2023-04-15T11:43:04.050Z,33.78
2023-04-15T11:44:04.219Z,33.76
2023-04-15T11:45:04.051Z,33.77
2023-04-15T11:46:04.071Z,33.78
2023-04-15T11:47:04.032Z,33.78
2023-04-15T11:48:04.087Z,33.76
2023-04-15T11:49:04.111Z,33.75
2023-04-15T11:50:04.141Z,33.77
2023-04-15T11:51:04.176Z,33.75
2023-04-15T11:52:04.208Z,33.77
2023-04-15T11:53:06.232Z,33.77
2023-04-15T11:54:04.621Z,33.76
2023-04-15T11:55:04.268Z,33.78
2023-04-15T11:56:04.244Z,33.79
2023-04-15T11:57:04.241Z,33.79
2023-04-15T11:58:04.218Z,33.80
2023-04-15T11:59:04.215Z,33.80
2023-04-15T12:00:04.215Z,33.77
2023-04-15T12:01:04.238Z,33.80
2023-04-15T12:02:04.332Z,33.78
2023-04-15T12:03:04.401Z,33.79
2023-04-15T12:04:04.785Z,33.80
2023-04-15T12:05:04.274Z,33.81
2023-04-15T12:06:04.165Z,33.77
2023-04-15T12:07:04.151Z,33.80
2023-04-15T12:08:04.151Z,33.80
2023-04-15T12:09:04.148Z,33.79
2023-04-15T12:10:04.174Z,33.80
2023-04-15T12:11:04.245Z,33.78
2023-04-15T12:12:04.274Z,33.81
2023-04-15T12:13:04.319Z,33.77
2023-04-15T12:14:04.529Z,33.78
2023-04-15T12:15:04.432Z,33.83
2023-04-15T12:16:04.491Z,33.78
2023-04-15T12:17:04.527Z,33.82
2023-04-15T12:18:05.224Z,33.81
2023-04-15T12:19:04.787Z,33.81
2023-04-15T12:20:04.829Z,33.82
2023-04-15T12:21:04.851Z,33.81
2023-04-15T12:22:04.878Z,33.82
2023-04-15T12:23:04.926Z,33.80
2023-04-15T12:24:05.206Z,33.81
2023-04-15T12:25:05.022Z,33.80
2023-04-15T12:26:05.058Z,33.82
2023-04-15T12:27:05.136Z,33.80
2023-04-15T12:28:05.122Z,33.79
2023-04-15T12:29:05.172Z,33.80
2023-04-15T12:30:05.225Z,33.79
2023-04-15T12:31:05.280Z,33.75
2023-04-15T12:32:05.283Z,33.78
2023-04-15T12:33:05.450Z,33.75
2023-04-15T12:34:05.528Z,33.74
2023-04-15T12:35:05.436Z,33.73
2023-04-15T12:36:05.518Z,33.73
2023-04-15T12:37:05.543Z,33.68
2023-04-15T12:38:05.610Z,33.69
2023-04-15T12:39:05.671Z,33.70
2023-04-15T12:40:05.731Z,33.69
2023-04-15T12:41:05.781Z,33.67
2023-04-15T12:42:05.841Z,33.69
2023-04-15T12:43:05.927Z,33.66
2023-04-15T12:44:06.226Z,33.65
2023-04-15T12:45:05.998Z,33.67
2023-04-15T12:46:06.089Z,33.66
2023-04-15T12:47:06.118Z,33.65
2023-04-15T12:48:06.163Z,33.65
2023-04-15T12:49:06.270Z,33.64
2023-04-15T12:50:06.271Z,33.67
2023-04-15T12:51:06.330Z,33.67
2023-04-15T12:52:06.378Z,33.68
2023-04-15T12:53:06.426Z,33.70